Airfield :
LOGIN :

Register | Disclaimer

   EN    FR    IT 

 










Legend :    VFR   Marginal VFR   IFR   Intensive IFR   Very Intensive IFR
Visi :
Ceiling :
>= 8 km
>= 3000ft
5 to 8 km
1000 to 3000 ft
1500m to 5 km
500 to 1000 ft
800 to 1500m
200 to 500 ft
< 800m
< 200 ft
Symbols :   Thunderstorms  Fog  Heavy snow  Heavy precipitations  Wind > 20 kt
SIGMETs :     Misc.  Thunderstorms  Icing  Turbulence  Mountain Waves  Volcanic Ashes






- Airport Elevation : 132 ft


EGXE - RAF Leeming

CURRENT METAR :
  • 231420Z 02015KT 9999 BKN040 10/02 Q1023 NOSIG RMK BLU BLU

EXPIRED METARs :
  • 231350Z 01011KT 9999 FEW028 BKN040 09/02 Q1024 NOSIG RMK BLU BLU
  • 231320Z 03012KT 9999 FEW035 BKN050 09/03 Q1024 NOSIG RMK BLU BLU
  • 231250Z 02011KT 9999 BKN040 10/03 Q1024 NOSIG RMK BLU BLU
  • 231220Z 36013KT 9999 SCT035 BKN045 09/01 Q1024 NOSIG RMK BLU BLU
  • 231150Z 02014KT 9999 FEW025 BKN045 09/03 Q1024 TEMPO 02015G25KT RMK BLU TEMPO BLU
  • 231120Z 02012KT 9999 FEW022 BKN035 08/05 Q1024 TEMPO 02015G25KT RMK BLU TEMPO BLU
  • 231050Z 02013KT 9999 -DZ SCT020 BKN050 07/05 Q1025 BECMG FEW020 RMK WHT BECMG BLU
  • 231020Z 02014KT 9999 FEW024 BKN045 09/04 Q1024 TEMPO 03015G25KT RMK BLU TEMPO BLU
  • 230950Z 36016KT 9999 SCT027 BKN040 08/03 Q1025 TEMPO 03015G25KT RMK BLU TEMPO BLU
  • 230920Z 01014KT 9999 SCT030 BKN040 08/02 Q1025 NOSIG RMK BLU BLU

TAF AMD TAF EGXE
Valid from the 23 at 10:00 until the 23 at 18:00 UTC


231056Z 2310/2318 35012KT 9999 BKN030
TEMPO 2310/2312 SCT020
TEMPO 2310/2314 02015G25KT



MET'MAP, your aeronautical weather chart ! - Copyright ORBIFLY December 2007 - Disclaimer

ORBIFLY MET'MAP TEAM :

Programming & Development : Alexandra Zaïnal
Original concept : Baudouin d'Aumeries
Technical & hardware support : Manuel Goepfert
Assistance : Marc-Olivier Méhu




SOURCES & CREDITS :

   NOAA